createdAt,value
2022-12-08T00:01:23.049Z,102108.06
2022-12-08T00:03:51.014Z,102100.25
2022-12-08T00:06:50.892Z,102098.41
2022-12-08T00:09:23.902Z,102100.00
2022-12-08T00:11:59.938Z,102081.88
2022-12-08T00:14:30.105Z,102087.72
2022-12-08T00:16:57.898Z,102089.31
2022-12-08T00:19:25.636Z,102084.03
2022-12-08T00:21:53.427Z,102084.84
2022-12-08T00:24:21.508Z,102078.69
2022-12-08T00:26:48.829Z,102076.81
2022-12-08T00:29:17.734Z,102074.06
2022-12-08T00:31:45.007Z,102066.19
2022-12-08T00:34:15.832Z,102064.34
2022-12-08T00:36:42.875Z,102070.25
2022-12-08T00:39:11.225Z,102062.34
2022-12-08T00:41:56.890Z,102066.63
2022-12-08T00:44:23.751Z,102056.34
2022-12-08T00:46:50.471Z,102049.41
2022-12-08T00:49:18.452Z,102049.34
2022-12-08T00:51:45.416Z,102040.63
2022-12-08T00:54:12.485Z,102042.19
2022-12-08T00:56:40.015Z,102048.94
2022-12-08T00:59:08.304Z,102036.03
2022-12-08T01:01:35.870Z,102034.34
2022-12-08T01:04:07.346Z,102035.22
2022-12-08T01:06:37.292Z,102035.28
2022-12-08T01:09:06.304Z,102025.88
2022-12-08T01:11:34.017Z,102024.06
2022-12-08T01:14:00.822Z,102016.28
2022-12-08T01:16:33.982Z,102020.47
2022-12-08T01:19:01.247Z,102016.09
2022-12-08T01:21:28.078Z,101999.59
2022-12-08T01:23:55.706Z,102016.91
2022-12-08T01:26:22.697Z,102011.75
2022-12-08T01:28:49.631Z,102011.75
2022-12-08T01:31:18.853Z,102011.75
2022-12-08T01:33:46.696Z,102004.06
2022-12-08T01:36:26.007Z,101989.47
2022-12-08T01:38:53.876Z,101994.72
2022-12-08T01:41:23.667Z,101988.63
2022-12-08T01:44:02.880Z,101991.34
2022-12-08T01:46:32.192Z,101981.03
2022-12-08T01:49:04.977Z,101976.03
2022-12-08T01:51:35.697Z,101978.66
2022-12-08T01:54:03.889Z,101979.47
2022-12-08T01:56:43.949Z,101980.25
2022-12-08T01:59:11.917Z,101972.41
2022-12-08T02:01:39.102Z,101972.31
2022-12-08T02:04:10.460Z,101968.06
2022-12-08T02:06:41.963Z,101968.06
2022-12-08T02:09:09.145Z,101962.84
2022-12-08T02:11:36.057Z,101962.00
2022-12-08T02:14:06.556Z,101963.66
2022-12-08T02:16:54.573Z,101967.03
2022-12-08T02:19:48.682Z,101964.38
2022-12-08T02:22:19.687Z,101960.84
2022-12-08T02:24:46.338Z,101964.28
2022-12-08T02:27:25.589Z,101962.63
2022-12-08T02:30:15.177Z,101950.66
2022-12-08T02:33:03.057Z,101948.09
2022-12-08T02:36:02.076Z,101949.00
2022-12-08T02:38:37.673Z,101937.06
2022-12-08T02:41:32.287Z,101938.91
2022-12-08T02:44:15.633Z,101937.22
2022-12-08T02:46:49.979Z,101931.19
2022-12-08T02:49:16.922Z,101932.81
2022-12-08T02:51:43.688Z,101933.59
2022-12-08T02:54:11.101Z,101933.72
2022-12-08T02:56:50.834Z,101926.00
2022-12-08T02:59:32.682Z,101913.97
2022-12-08T03:02:18.646Z,101914.72
2022-12-08T03:05:02.697Z,101917.22
2022-12-08T03:07:39.321Z,101913.69
2022-12-08T03:10:18.236Z,101911.00
2022-12-08T03:13:01.907Z,101904.13
2022-12-08T03:15:31.801Z,101904.19
2022-12-08T03:18:00.950Z,101895.75
2022-12-08T03:20:30.905Z,101882.19
2022-12-08T03:23:00.330Z,101874.53
2022-12-08T03:25:32.088Z,101883.22
2022-12-08T03:27:59.895Z,101870.56
2022-12-08T03:30:29.555Z,101849.19
2022-12-08T03:33:08.005Z,101858.03
2022-12-08T03:35:39.411Z,101861.53
2022-12-08T03:38:15.389Z,101855.66
2022-12-08T03:40:42.603Z,101857.53
2022-12-08T03:43:09.754Z,101861.09
2022-12-08T03:45:36.750Z,101851.88
2022-12-08T03:48:03.555Z,101857.16
2022-12-08T03:50:30.279Z,101854.75
2022-12-08T03:52:57.069Z,101850.63
2022-12-08T03:55:23.837Z,101829.19
2022-12-08T03:57:50.609Z,101854.19
2022-12-08T04:00:17.626Z,101850.00
2022-12-08T04:02:44.443Z,101841.47
2022-12-08T04:05:11.227Z,101840.72
2022-12-08T04:07:38.161Z,101836.50
2022-12-08T04:10:05.730Z,101844.25
2022-12-08T04:12:32.661Z,101832.34
2022-12-08T04:14:59.436Z,101840.06
2022-12-08T04:17:26.162Z,101835.84
2022-12-08T04:19:52.881Z,101835.94
2022-12-08T04:22:19.661Z,101833.41
2022-12-08T04:24:46.383Z,101818.94
2022-12-08T04:27:13.077Z,101822.41
2022-12-08T04:29:39.858Z,101819.88
2022-12-08T04:32:06.570Z,101819.94
2022-12-08T04:34:33.249Z,101823.38
2022-12-08T04:37:00.020Z,101816.56
2022-12-08T04:39:26.785Z,101816.59
2022-12-08T04:41:53.485Z,101810.63
2022-12-08T04:44:20.342Z,101800.38
2022-12-08T04:46:47.112Z,101798.72
2022-12-08T04:49:13.881Z,101795.31
2022-12-08T04:51:40.649Z,101792.78
2022-12-08T04:54:07.399Z,101791.91
2022-12-08T04:56:34.287Z,101783.34
2022-12-08T04:59:01.100Z,101773.06
2022-12-08T05:01:28.047Z,101769.66
2022-12-08T05:03:54.807Z,101765.31
2022-12-08T05:06:21.603Z,101767.00
2022-12-08T05:08:48.388Z,101760.97
2022-12-08T05:11:15.102Z,101762.69
2022-12-08T05:13:42.007Z,101755.84
2022-12-08T05:16:11.419Z,101748.16
2022-12-08T05:18:39.418Z,101746.44
2022-12-08T05:21:07.195Z,101753.34
2022-12-08T05:23:34.348Z,101744.78
2022-12-08T05:26:01.154Z,101727.66
2022-12-08T05:28:44.223Z,101729.38
2022-12-08T05:31:13.188Z,101725.97
2022-12-08T05:33:40.701Z,101728.56
2022-12-08T05:36:08.242Z,101721.72
2022-12-08T05:38:35.129Z,101720.06
2022-12-08T05:41:02.104Z,101723.50
2022-12-08T05:43:29.221Z,101714.91
2022-12-08T05:45:56.063Z,101716.66
2022-12-08T05:48:22.879Z,101718.38
2022-12-08T05:50:51.007Z,101710.69
2022-12-08T05:53:19.759Z,101702.97
2022-12-08T05:55:47.802Z,101696.91
2022-12-08T05:58:17.094Z,101702.06
2022-12-08T06:00:44.679Z,101707.19
2022-12-08T06:03:13.105Z,101702.94
2022-12-08T06:05:41.571Z,101705.50
2022-12-08T06:08:08.777Z,101696.00
2022-12-08T06:10:35.612Z,101683.97
2022-12-08T06:13:02.339Z,101681.38
2022-12-08T06:15:29.129Z,101689.94
2022-12-08T06:17:55.834Z,101685.63
2022-12-08T06:20:22.590Z,101687.34
2022-12-08T06:22:49.399Z,101689.91
2022-12-08T06:25:16.103Z,101687.34
2022-12-08T06:27:42.816Z,101689.97
2022-12-08T06:30:09.807Z,101689.13
2022-12-08T06:32:37.351Z,101687.41
2022-12-08T06:35:04.443Z,101681.44
2022-12-08T06:37:32.064Z,101682.28
2022-12-08T06:39:58.887Z,101681.44
2022-12-08T06:42:43.940Z,101676.28
2022-12-08T06:45:18.169Z,101666.81
2022-12-08T06:47:44.994Z,101680.56
2022-12-08T06:50:12.982Z,101673.72
2022-12-08T06:52:51.688Z,101666.06
2022-12-08T06:55:57.503Z,101663.47
2022-12-08T06:58:13.354Z,101673.84
2022-12-08T07:00:41.289Z,101671.31
2022-12-08T07:03:09.743Z,101670.50
2022-12-08T07:05:37.303Z,101667.09
2022-12-08T07:08:05.454Z,101655.09
2022-12-08T07:10:32.454Z,101671.41
2022-12-08T07:12:59.168Z,101676.59
2022-12-08T07:15:26.206Z,101670.63
2022-12-08T07:17:59.394Z,101665.47
2022-12-08T07:20:26.846Z,101666.34
2022-12-08T07:22:54.180Z,101671.53
2022-12-08T07:25:21.122Z,101662.97
2022-12-08T07:27:48.233Z,101664.72
2022-12-08T07:30:15.165Z,101657.00
2022-12-08T07:32:41.890Z,101651.88
2022-12-08T07:35:09.776Z,101657.00
2022-12-08T07:37:37.633Z,101643.31
2022-12-08T07:40:06.729Z,101645.03
2022-12-08T07:42:33.915Z,101647.59
2022-12-08T07:45:00.926Z,101645.91
2022-12-08T07:47:27.643Z,101642.47
2022-12-08T07:49:54.485Z,101638.19
2022-12-08T07:52:21.257Z,101637.34
2022-12-08T07:54:47.965Z,101630.47
2022-12-08T07:57:14.947Z,101640.78
2022-12-08T07:59:41.700Z,101639.09
2022-12-08T08:02:26.063Z,101639.13
2022-12-08T08:04:53.675Z,101639.97
2022-12-08T08:07:21.022Z,101634.84
2022-12-08T08:09:47.737Z,101634.03
2022-12-08T08:12:30.733Z,101636.63
2022-12-08T08:14:58.965Z,101628.03
2022-12-08T08:17:25.837Z,101626.31
2022-12-08T08:19:52.783Z,101614.31
2022-12-08T08:22:19.543Z,101612.59
2022-12-08T08:24:46.398Z,101610.88
2022-12-08T08:27:14.149Z,101616.03
2022-12-08T08:29:40.892Z,101611.72
2022-12-08T08:32:07.633Z,101620.31
2022-12-08T08:34:34.415Z,101620.31
2022-12-08T08:37:01.264Z,101620.31
2022-12-08T08:39:30.189Z,101623.75
2022-12-08T08:41:56.970Z,101617.75
2022-12-08T08:44:23.944Z,101612.59
2022-12-08T08:46:50.761Z,101622.03
2022-12-08T08:49:17.923Z,101634.09
2022-12-08T08:51:44.663Z,101636.66
2022-12-08T08:54:11.406Z,101634.09
2022-12-08T08:56:38.128Z,101637.53
2022-12-08T08:59:04.940Z,101636.66
2022-12-08T09:01:31.758Z,101627.22
2022-12-08T09:03:58.678Z,101634.09
2022-12-08T09:06:28.296Z,101628.09
2022-12-08T09:08:55.200Z,101634.94
2022-12-08T09:11:23.665Z,101628.94
2022-12-08T09:13:52.338Z,101632.38
2022-12-08T09:16:19.886Z,101631.53
2022-12-08T09:18:49.447Z,101629.78
2022-12-08T09:21:23.163Z,101628.94
2022-12-08T09:23:51.540Z,101617.78
2022-12-08T09:26:18.411Z,101633.22
2022-12-08T09:28:46.817Z,101630.66
2022-12-08T09:31:14.570Z,101627.22
2022-12-08T09:33:42.096Z,101618.63
2022-12-08T09:36:09.421Z,101621.19
2022-12-08T09:38:37.009Z,101614.34
2022-12-08T09:41:12.733Z,101619.47
2022-12-08T09:44:02.764Z,101610.91
2022-12-08T09:46:32.395Z,101617.78
2022-12-08T09:49:03.674Z,101616.91
2022-12-08T09:51:40.691Z,101611.75
2022-12-08T09:54:21.586Z,101605.75
2022-12-08T09:56:52.215Z,101596.31
2022-12-08T09:59:32.347Z,101583.41
2022-12-08T10:02:00.894Z,101579.13
2022-12-08T10:04:38.746Z,101579.13
2022-12-08T10:07:21.267Z,101581.69
2022-12-08T10:10:03.762Z,101597.16
2022-12-08T10:13:08.633Z,101594.56
2022-12-08T10:15:40.285Z,101585.06
2022-12-08T10:18:23.467Z,101585.03
2022-12-08T10:20:51.918Z,101592.72
2022-12-08T10:23:21.362Z,101586.66
2022-12-08T10:25:51.359Z,101581.47
2022-12-08T10:28:18.103Z,101590.91
2022-12-08T10:30:44.865Z,101574.59
2022-12-08T10:33:18.170Z,101582.22
2022-12-08T10:35:46.529Z,101582.22
2022-12-08T10:38:27.103Z,101576.19
2022-12-08T10:41:01.184Z,101573.63
2022-12-08T10:43:28.275Z,101580.47
2022-12-08T10:45:55.377Z,101583.03
2022-12-08T10:48:31.344Z,101578.78
2022-12-08T10:51:00.138Z,101577.91
2022-12-08T10:53:32.167Z,101572.75
2022-12-08T10:56:01.757Z,101580.47
2022-12-08T10:58:36.654Z,101575.31
2022-12-08T11:01:09.074Z,101586.53
2022-12-08T11:03:49.956Z,101583.09
2022-12-08T11:06:22.927Z,101573.63
2022-12-08T11:08:57.800Z,101570.16
2022-12-08T11:11:39.601Z,101575.28
2022-12-08T11:14:15.760Z,101571.81
2022-12-08T11:16:43.507Z,101574.34
2022-12-08T11:19:15.957Z,101569.19
2022-12-08T11:21:45.642Z,101576.88
2022-12-08T11:24:25.281Z,101576.03
2022-12-08T11:26:53.929Z,101572.53
2022-12-08T11:29:21.767Z,101574.22
2022-12-08T11:31:53.535Z,101571.66
2022-12-08T11:34:57.446Z,101563.03
2022-12-08T11:37:34.686Z,101562.19
2022-12-08T11:40:07.332Z,101556.19
2022-12-08T11:42:58.958Z,101562.22
2022-12-08T11:45:31.387Z,101553.69
2022-12-08T11:48:19.347Z,101566.63
2022-12-08T11:50:49.483Z,101560.63
2022-12-08T11:53:39.075Z,101553.78
2022-12-08T11:56:16.880Z,101555.50
2022-12-08T11:58:53.365Z,101542.63
2022-12-08T12:01:23.468Z,101548.59
2022-12-08T12:04:42.060Z,101545.13
2022-12-08T12:07:25.962Z,101542.53
2022-12-08T12:10:06.805Z,101537.38
2022-12-08T12:13:16.362Z,101539.06
2022-12-08T12:16:12.391Z,101532.88
2022-12-08T12:18:45.284Z,101525.94
2022-12-08T12:21:20.042Z,101527.69
2022-12-08T12:23:57.538Z,101526.78
2022-12-08T12:26:28.732Z,101518.91
2022-12-08T12:29:13.036Z,101523.91
2022-12-08T12:31:47.507Z,101521.97
2022-12-08T12:34:14.175Z,101514.16
2022-12-08T12:37:10.435Z,101504.56
2022-12-08T12:39:52.368Z,101506.22
2022-12-08T12:42:42.353Z,101512.28
2022-12-08T12:45:33.491Z,101509.59
2022-12-08T12:48:00.323Z,101502.66
2022-12-08T12:51:25.293Z,101509.53
2022-12-08T12:53:52.325Z,101502.59
2022-12-08T12:56:48.671Z,101497.41
2022-12-08T13:00:00.394Z,101487.03
2022-12-08T13:02:34.453Z,101485.25
2022-12-08T13:05:03.551Z,101485.16
2022-12-08T13:07:34.147Z,101486.88
2022-12-08T13:10:16.282Z,101486.09
2022-12-08T13:12:45.480Z,101473.13
2022-12-08T13:15:20.154Z,101483.34
2022-12-08T13:17:49.327Z,101481.53
2022-12-08T13:20:23.029Z,101480.56
2022-12-08T13:22:59.139Z,101483.13
2022-12-08T13:25:39.667Z,101477.81
2022-12-08T13:28:21.789Z,101476.16
2022-12-08T13:30:54.033Z,101471.66
2022-12-08T13:33:28.479Z,101481.09
2022-12-08T13:36:28.087Z,101481.97
2022-12-08T13:38:58.638Z,101473.31
2022-12-08T13:42:00.931Z,101482.75
2022-12-08T13:45:48.719Z,101480.81
2022-12-08T13:48:23.363Z,101482.50
2022-12-08T13:59:30.563Z,101476.19
2022-12-08T14:02:11.483Z,101469.31
2022-12-08T14:05:09.364Z,101463.22
2022-12-08T14:07:25.516Z,101475.34
2022-12-08T14:09:53.264Z,101463.22
2022-12-08T14:12:22.143Z,101468.34
2022-12-08T14:15:04.752Z,101465.75
2022-12-08T14:17:32.418Z,101451.91
2022-12-08T14:20:14.229Z,101459.63
2022-12-08T14:22:41.562Z,101456.34
2022-12-08T14:25:14.726Z,101451.22
2022-12-08T14:27:41.894Z,101449.44
2022-12-08T14:30:18.725Z,101443.47
2022-12-08T14:32:49.819Z,101445.28
2022-12-08T14:35:22.190Z,101432.41
2022-12-08T14:37:51.742Z,101429.03
2022-12-08T14:40:22.769Z,101437.78
2022-12-08T14:43:08.283Z,101428.50
2022-12-08T14:45:40.800Z,101436.53
2022-12-08T14:48:26.089Z,101438.38
2022-12-08T14:51:16.487Z,101439.22
2022-12-08T14:53:58.900Z,101436.50
2022-12-08T14:56:33.047Z,101431.16
2022-12-08T14:59:20.179Z,101427.56
2022-12-08T15:01:48.813Z,101436.06
2022-12-08T15:04:20.339Z,101435.00
2022-12-08T15:06:59.360Z,101435.72
2022-12-08T15:09:41.996Z,101427.81
2022-12-08T15:12:14.931Z,101431.22
2022-12-08T15:15:10.759Z,101428.63
2022-12-08T15:17:40.276Z,101431.22
2022-12-08T15:20:34.821Z,101429.59
2022-12-08T15:23:02.834Z,101430.66
2022-12-08T15:25:29.957Z,101428.31
2022-12-08T15:27:58.067Z,101417.28
2022-12-08T15:30:28.896Z,101426.97
2022-12-08T15:32:56.557Z,101428.84
2022-12-08T15:35:24.326Z,101424.75
2022-12-08T15:37:51.022Z,101417.97
2022-12-08T15:40:20.687Z,101423.22
2022-12-08T15:42:47.898Z,101425.94
2022-12-08T15:45:16.352Z,101420.84
2022-12-08T15:47:44.636Z,101416.59
2022-12-08T15:50:16.780Z,101406.41
2022-12-08T15:52:43.886Z,101409.88
2022-12-08T15:55:19.593Z,101412.63
2022-12-08T15:58:52.002Z,101415.28
2022-12-08T16:00:54.358Z,101430.03
2022-12-08T16:09:18.947Z,101430.97
2022-12-08T16:12:07.283Z,101433.50
2022-12-08T16:17:22.899Z,101433.53
2022-12-08T16:19:49.790Z,101431.91
2022-12-08T16:25:24.397Z,101426.09
2022-12-08T16:28:03.067Z,101414.25
2022-12-08T16:30:33.172Z,101414.41
2022-12-08T16:32:59.969Z,101414.56
2022-12-08T16:35:26.878Z,101412.09
2022-12-08T16:37:53.675Z,101408.78
2022-12-08T16:40:20.575Z,101413.13
2022-12-08T16:42:50.069Z,101405.47
2022-12-08T16:45:23.162Z,101408.97
2022-12-08T16:47:59.757Z,101417.63
2022-12-08T16:50:29.573Z,101419.41
2022-12-08T16:52:59.750Z,101428.88
2022-12-08T16:55:26.872Z,101408.28
2022-12-08T16:57:53.685Z,101421.16
2022-12-08T17:00:23.814Z,101423.75
2022-12-08T17:02:51.449Z,101422.03
2022-12-08T17:05:20.848Z,101417.75
2022-12-08T17:07:50.105Z,101407.47
2022-12-08T17:10:23.508Z,101410.03
2022-12-08T17:12:50.742Z,101416.03
2022-12-08T17:15:19.877Z,101420.31
2022-12-08T17:17:46.830Z,101422.03
2022-12-08T17:20:16.551Z,101416.03
2022-12-08T17:22:43.492Z,101416.03
2022-12-08T17:25:11.079Z,101421.19
2022-12-08T17:27:38.517Z,101414.31
2022-12-08T17:30:11.453Z,101419.44
2022-12-08T17:32:38.942Z,101420.28
2022-12-08T17:35:07.177Z,101403.97
2022-12-08T17:37:34.713Z,101398.00
2022-12-08T17:40:02.023Z,101394.50
2022-12-08T17:42:28.805Z,101408.22
2022-12-08T17:44:55.663Z,101405.66
2022-12-08T17:47:22.563Z,101399.66
2022-12-08T17:49:49.363Z,101401.34
2022-12-08T17:52:16.145Z,101408.19
2022-12-08T17:54:42.996Z,101404.72
2022-12-08T17:57:09.752Z,101416.72
2022-12-08T17:59:36.522Z,101416.69
2022-12-08T18:02:04.461Z,101415.78
2022-12-08T18:04:31.389Z,101409.75
2022-12-08T18:07:00.368Z,101422.59
2022-12-08T18:09:27.362Z,101417.47
2022-12-08T18:11:54.114Z,101412.31
2022-12-08T18:14:21.033Z,101411.44
2022-12-08T18:16:48.064Z,101420.84
2022-12-08T18:19:15.764Z,101419.97
2022-12-08T18:21:43.212Z,101412.22
2022-12-08T18:24:17.599Z,101413.94
2022-12-08T18:26:44.451Z,101411.34
2022-12-08T18:29:11.285Z,101408.78
2022-12-08T18:31:38.121Z,101419.03
2022-12-08T18:34:04.871Z,101417.31
2022-12-08T18:36:31.703Z,101420.69
2022-12-08T18:38:58.470Z,101414.72
2022-12-08T18:41:26.226Z,101405.25
2022-12-08T18:43:54.539Z,101413.75
2022-12-08T18:46:21.690Z,101412.88
2022-12-08T18:48:50.414Z,101410.31
2022-12-08T18:51:23.223Z,101413.69
2022-12-08T18:53:50.884Z,101409.38
2022-12-08T18:56:36.975Z,101414.50
2022-12-08T18:59:06.690Z,101417.03
2022-12-08T19:01:38.538Z,101420.44
2022-12-08T19:06:53.843Z,101416.22
2022-12-08T19:09:21.179Z,101425.63
2022-12-08T19:11:48.205Z,101418.81
2022-12-08T19:14:15.155Z,101412.06
2022-12-08T19:16:41.997Z,101418.91
2022-12-08T19:19:08.742Z,101419.78
2022-12-08T19:21:35.820Z,101430.09
2022-12-08T19:24:02.644Z,101417.38
2022-12-08T19:26:29.637Z,101407.13
2022-12-08T19:28:57.653Z,101420.88
2022-12-08T19:31:24.651Z,101418.34
2022-12-08T19:33:51.568Z,101416.66
2022-12-08T19:36:21.738Z,101423.56
2022-12-08T19:39:07.639Z,101415.06
2022-12-08T19:41:55.206Z,101418.50
2022-12-08T19:44:33.067Z,101414.22
2022-12-08T19:47:01.468Z,101415.91
2022-12-08T19:49:28.525Z,101416.81
2022-12-08T19:51:55.721Z,101419.38
2022-12-08T19:54:22.470Z,101416.84
2022-12-08T19:56:49.242Z,101419.44
2022-12-08T19:59:16.090Z,101425.44
2022-12-08T20:01:44.148Z,101428.91
2022-12-08T20:04:15.949Z,101424.63
2022-12-08T20:06:44.047Z,101425.47
2022-12-08T20:09:12.347Z,101422.06
2022-12-08T20:11:39.836Z,101423.75
2022-12-08T20:14:07.143Z,101434.06
2022-12-08T20:16:34.239Z,101436.59
2022-12-08T20:19:02.203Z,101424.59
2022-12-08T20:21:29.072Z,101432.28
2022-12-08T20:23:56.029Z,101447.66
2022-12-08T20:26:23.907Z,101435.56
2022-12-08T20:28:51.625Z,101434.63
2022-12-08T20:31:27.098Z,101428.56
2022-12-08T20:33:54.342Z,101436.22
2022-12-08T20:36:22.225Z,101438.75
2022-12-08T20:38:50.982Z,101436.09
2022-12-08T20:41:18.682Z,101426.63
2022-12-08T20:43:46.895Z,101441.13
2022-12-08T20:46:16.015Z,101438.53
2022-12-08T20:48:44.156Z,101439.34
2022-12-08T20:51:19.406Z,101429.00
2022-12-08T20:53:47.261Z,101428.91
2022-12-08T20:56:19.948Z,101424.56
2022-12-08T20:58:47.346Z,101424.47
2022-12-08T21:01:17.107Z,101432.94
2022-12-08T21:03:46.101Z,101431.13
2022-12-08T21:06:14.136Z,101417.34
2022-12-08T21:08:42.369Z,101430.97
2022-12-08T21:11:10.305Z,101428.34
2022-12-08T21:13:38.773Z,101429.13
2022-12-08T21:16:06.475Z,101432.50
2022-12-08T21:18:38.924Z,101435.00
2022-12-08T21:21:09.167Z,101431.53
2022-12-08T21:23:36.295Z,101431.53
2022-12-08T21:26:09.702Z,101433.22
2022-12-08T21:28:36.756Z,101435.66
2022-12-08T21:31:07.878Z,101433.09
2022-12-08T21:33:35.105Z,101433.91
2022-12-08T21:36:09.076Z,101428.66
2022-12-08T21:38:37.527Z,101426.00
2022-12-08T21:41:06.684Z,101426.84
2022-12-08T21:43:33.525Z,101431.97
2022-12-08T21:46:00.545Z,101432.75
2022-12-08T21:48:28.124Z,101425.88
2022-12-08T21:50:55.359Z,101433.50
2022-12-08T21:53:25.438Z,101436.88
2022-12-08T21:55:52.634Z,101431.63
2022-12-08T21:58:19.440Z,101433.28
2022-12-08T22:00:46.357Z,101437.31
2022-12-08T22:03:15.027Z,101446.59
2022-12-08T22:05:42.817Z,101439.88
2022-12-08T22:08:09.784Z,101452.63
2022-12-08T22:10:36.673Z,101434.53
2022-12-08T22:13:03.624Z,101433.50
2022-12-08T22:15:30.685Z,101433.28
2022-12-08T22:17:57.668Z,101440.78
2022-12-08T22:20:24.754Z,101438.91
2022-12-08T22:22:51.546Z,101435.34
2022-12-08T22:25:18.498Z,101433.56
2022-12-08T22:27:45.278Z,101442.81
2022-12-08T22:30:12.721Z,101440.16
2022-12-08T22:32:39.904Z,101444.38
2022-12-08T22:35:07.250Z,101443.50
2022-12-08T22:37:34.201Z,101438.41
2022-12-08T22:40:01.166Z,101435.13
2022-12-08T22:42:28.029Z,101438.53
2022-12-08T22:44:54.821Z,101430.72
2022-12-08T22:47:21.631Z,101434.03
2022-12-08T22:49:48.499Z,101439.09
2022-12-08T22:52:15.287Z,101431.59
2022-12-08T22:54:42.069Z,101438.50
2022-12-08T22:57:08.765Z,101432.41
2022-12-08T22:59:35.666Z,101432.31
2022-12-08T23:02:02.661Z,101427.94
2022-12-08T23:04:29.547Z,101418.28
2022-12-08T23:06:56.434Z,101424.16
2022-12-08T23:09:23.988Z,101419.69
2022-12-08T23:11:51.033Z,101424.59
2022-12-08T23:14:17.965Z,101423.56
2022-12-08T23:16:44.968Z,101432.75
2022-12-08T23:19:12.093Z,101424.94
2022-12-08T23:21:39.059Z,101429.06
2022-12-08T23:24:06.029Z,101424.72
2022-12-08T23:26:35.335Z,101425.59
2022-12-08T23:29:03.292Z,101424.72
2022-12-08T23:31:30.616Z,101425.53
2022-12-08T23:33:57.461Z,101416.94
2022-12-08T23:36:29.303Z,101416.84
2022-12-08T23:38:56.049Z,101422.72
2022-12-08T23:41:23.017Z,101420.22
2022-12-08T23:43:51.896Z,101412.50
2022-12-08T23:46:20.554Z,101417.72
2022-12-08T23:48:48.084Z,101422.84
2022-12-08T23:51:15.497Z,101432.13
2022-12-08T23:53:43.134Z,101431.03
2022-12-08T23:56:13.022Z,101428.44
2022-12-08T23:58:40.749Z,101423.25
